Time;durP1;ratioP1;P1;durP2;ratioP2;P2;SDS_P1;SDS_P2;PMS_P1;PMS_P2;Temp;Humidity;BMP_temperature;BMP_pressure;BME280_temperature;BME280_humidity;BME280_pressure;Samples;Min_cycle;Max_cycle;Signal;HPM_P1;HPM_P2
2021/06/21 00:00:14;;;;;;;4.57;3.43;;;;;;;21.45;55.43;94818.44;5063682;28;20696;-71
2021/06/21 00:02:42;;;;;;;10.83;3.67;;;;;;;21.70;55.52;94817.44;5067315;28;20204;-71
2021/06/21 00:05:14;;;;;;;3.50;3.20;;;;;;;21.83;55.07;94816.44;5062091;28;20275;-73
2021/06/21 00:07:42;;;;;;;6.57;3.57;;;;;;;21.71;55.29;94808.34;5071684;28;20244;-71
2021/06/21 00:10:12;;;;;;;3.67;3.37;;;;;;;21.73;55.71;94812.25;5070607;28;20705;-72
2021/06/21 00:12:41;;;;;;;4.77;3.93;;;;;;;21.68;55.49;94809.78;5071207;28;20595;-72
2021/06/21 00:15:09;;;;;;;8.37;3.77;;;;;;;21.51;56.16;94811.81;5061856;28;20228;-73
2021/06/21 00:17:37;;;;;;;7.83;3.73;;;;;;;21.09;57.40;94814.44;5066796;28;20208;-71
2021/06/21 00:20:05;;;;;;;6.73;3.33;;;;;;;20.86;57.98;94805.13;5057945;28;20209;-71
2021/06/21 00:22:32;;;;;;;4.60;3.50;;;;;;;20.66;58.70;94799.75;5070966;28;20712;-72
2021/06/21 00:25:00;;;;;;;7.47;3.50;;;;;;;20.53;59.23;94801.53;5058520;28;20201;-72
2021/06/21 00:27:28;;;;;;;8.33;3.57;;;;;;;20.71;58.82;94792.38;5055587;28;20493;-71
2021/06/21 00:29:55;;;;;;;4.57;3.47;;;;;;;20.70;59.10;94800.69;5070792;28;20477;-71
2021/06/21 00:32:23;;;;;;;7.63;3.93;;;;;;;20.92;58.65;94793.22;5056463;28;20908;-71
2021/06/21 00:34:50;;;;;;;5.53;3.70;;;;;;;21.11;58.02;94790.91;5069438;28;20952;-68
2021/06/21 00:37:17;;;;;;;7.20;3.50;;;;;;;21.21;57.65;94783.63;5061404;28;20544;-68
2021/06/21 00:39:44;;;;;;;6.10;4.07;;;;;;;21.23;57.60;94790.22;5070630;28;20188;-70
2021/06/21 00:42:11;;;;;;;8.53;4.93;;;;;;;21.15;57.74;94799.81;5070856;28;20199;-68
2021/06/21 00:44:37;;;;;;;10.10;5.70;;;;;;;21.28;57.40;94783.91;5070661;28;20438;-67
2021/06/21 00:47:04;;;;;;;8.50;5.90;;;;;;;21.14;57.34;94784.97;5056472;28;20446;-68
2021/06/21 00:49:31;;;;;;;9.03;5.43;;;;;;;20.98;58.36;94794.56;5062384;28;20451;-68
2021/06/21 00:51:58;;;;;;;10.60;6.50;;;;;;;21.00;58.09;94788.97;5065037;28;20442;-67
2021/06/21 00:54:25;;;;;;;12.17;5.53;;;;;;;21.13;57.67;94788.72;5056863;28;20469;-67
2021/06/21 00:56:52;;;;;;;7.07;5.47;;;;;;;21.21;57.40;94784.44;5070509;28;20442;-67
2021/06/21 00:59:20;;;;;;;9.30;5.80;;;;;;;21.20;57.33;94787.41;5054596;28;20491;-68
2021/06/21 01:01:47;;;;;;;10.90;5.87;;;;;;;21.08;57.76;94798.78;5070506;28;20230;-68
2021/06/21 01:04:14;;;;;;;12.30;5.10;;;;;;;21.14;57.72;94790.28;5070395;28;20238;-67
2021/06/21 01:06:41;;;;;;;7.80;5.10;;;;;;;21.14;57.77;94797.50;5070885;28;20230;-69
2021/06/21 01:09:08;;;;;;;9.27;5.53;;;;;;;21.10;58.20;94792.03;5069512;28;20206;-68
2021/06/21 01:12:04;;;;;;;10.60;5.13;;;;;;;21.27;57.60;94793.00;5062561;28;20192;-69
2021/06/21 01:14:33;;;;;;;15.40;5.33;;;;;;;21.07;57.98;94791.91;5065837;28;20220;-68
2021/06/21 01:17:24;;;;;;;12.60;5.20;;;;;;;21.11;57.74;94798.91;5070511;28;20692;-68
2021/06/21 01:19:51;;;;;;;9.07;5.43;;;;;;;21.10;57.76;94794.69;5058000;28;20450;-68
2021/06/21 01:22:39;;;;;;;7.70;4.70;;;;;;;20.94;58.52;94780.34;5063551;28;20189;-68
2021/06/21 01:25:31;;;;;;;13.20;5.20;;;;;;;20.84;59.02;94786.03;5062625;28;20452;-66
2021/06/21 01:28:57;;;;;;;7.67;4.53;;;;;;;20.79;58.84;94786.22;5058976;28;20195;-69
2021/06/21 01:32:01;;;;;;;11.00;5.00;;;;;;;20.49;59.85;94784.63;5049214;28;20446;-68
2021/06/21 01:34:37;;;;;;;11.37;5.33;;;;;;;20.69;59.61;94799.88;5048915;28;20216;-68
2021/06/21 01:37:05;;;;;;;7.17;4.50;;;;;;;20.58;59.95;94793.38;5053375;28;20454;-68
2021/06/21 01:39:35;;;;;;;5.97;4.60;;;;;;;20.50;60.03;94796.84;5069452;28;20931;-69
2021/06/21 01:42:06;;;;;;;7.43;4.67;;;;;;;20.51;59.71;94795.75;5066946;28;20478;-69
2021/06/21 01:44:38;;;;;;;5.70;4.57;;;;;;;20.64;59.29;94789.44;5049786;28;20443;-67
2021/06/21 01:47:06;;;;;;;8.67;4.50;;;;;;;20.69;59.19;94804.47;5051487;28;20469;-67
2021/06/21 01:49:38;;;;;;;13.60;5.80;;;;;;;20.24;60.10;94804.13;5060750;28;20448;-66
2021/06/21 01:52:10;;;;;;;10.47;6.07;;;;;;;20.34;59.87;94809.13;5064571;28;20456;-69
2021/06/21 01:54:43;;;;;;;12.57;6.13;;;;;;;20.25;59.87;94799.59;5061141;28;20936;-65
2021/06/21 01:57:11;;;;;;;14.10;6.27;;;;;;;20.32;59.66;94814.00;5064451;28;20964;-66
2021/06/21 01:59:38;;;;;;;12.67;7.40;;;;;;;20.15;60.34;94809.47;5068972;28;20557;-66
2021/06/21 02:02:06;;;;;;;11.23;6.50;;;;;;;20.25;60.09;94813.69;5069781;28;20445;-66
2021/06/21 02:04:36;;;;;;;15.37;6.57;;;;;;;20.35;59.80;94810.69;5055118;28;20438;-65
2021/06/21 02:07:05;;;;;;;10.27;5.40;;;;;;;20.04;60.57;94794.13;5069102;28;20456;-66
2021/06/21 02:09:33;;;;;;;8.63;5.03;;;;;;;20.15;60.31;94798.81;5069082;28;20448;-67
2021/06/21 02:12:00;;;;;;;9.80;5.23;;;;;;;20.27;60.23;94798.19;5058242;28;20517;-67
2021/06/21 02:14:30;;;;;;;12.63;4.90;;;;;;;20.33;59.57;94798.81;5052488;28;20450;-67
2021/06/21 02:16:59;;;;;;;6.03;4.30;;;;;;;20.22;59.67;94801.00;5069837;28;20476;-67
2021/06/21 02:19:29;;;;;;;4.60;4.10;;;;;;;19.96;59.96;94802.94;5052455;28;20471;-67
2021/06/21 02:21:57;;;;;;;10.13;4.00;;;;;;;19.90;60.47;94799.66;5048936;28;20454;-67
2021/06/21 02:24:25;;;;;;;6.00;4.07;;;;;;;19.71;60.63;94795.75;5049396;28;20864;-66
2021/06/21 02:26:53;;;;;;;4.53;3.93;;;;;;;19.55;61.16;94813.28;5049583;28;20443;-67
2021/06/21 02:29:22;;;;;;;4.67;3.73;;;;;;;19.27;62.21;94822.63;5049036;28;20439;-66
2021/06/21 02:31:50;;;;;;;4.57;3.73;;;;;;;19.50;61.61;94816.09;5061452;28;20454;-66
2021/06/21 02:34:17;;;;;;;7.20;4.00;;;;;;;19.53;61.32;94816.25;5065981;28;20439;-66
2021/06/21 02:36:44;;;;;;;5.70;4.10;;;;;;;19.66;60.31;94803.91;5064484;28;20444;-67
2021/06/21 02:39:12;;;;;;;4.47;4.03;;;;;;;19.66;60.15;94788.75;5073618;28;20477;-67
2021/06/21 02:41:39;;;;;;;5.77;3.90;;;;;;;19.75;60.34;94808.13;5059947;28;20430;-66
2021/06/21 02:44:06;;;;;;;6.50;3.90;;;;;;;19.79;60.19;94808.25;5072331;28;20434;-66
2021/06/21 02:46:34;;;;;;;5.10;4.00;;;;;;;19.97;59.59;94802.63;5073362;28;20454;-66
2021/06/21 02:49:02;;;;;;;5.47;4.10;;;;;;;19.72;59.78;94789.34;5072048;28;20456;-66
2021/06/21 02:51:44;;;;;;;5.57;3.90;;;;;;;20.01;59.29;94814.19;5073249;28;20499;-67
2021/06/21 02:54:23;;;;;;;6.93;4.33;;;;;;;19.98;59.22;94811.38;5058663;28;20452;-68
2021/06/21 02:57:02;;;;;;;9.80;4.40;;;;;;;19.94;59.38;94797.16;5072964;28;20537;-67
2021/06/21 02:59:35;;;;;;;10.73;4.03;;;;;;;20.10;59.00;94801.66;5072856;28;20447;-68
2021/06/21 03:02:03;;;;;;;9.23;4.30;;;;;;;19.89;59.61;94797.31;5059740;28;20505;-67
2021/06/21 03:04:31;;;;;;;7.10;4.13;;;;;;;19.89;59.41;94792.00;5071666;28;20434;-68
2021/06/21 03:07:02;;;;;;;6.07;4.10;;;;;;;19.75;59.93;94783.41;5072652;28;20513;-68
2021/06/21 03:09:30;;;;;;;4.97;4.17;;;;;;;19.89;59.58;94786.69;5058115;28;20448;-67
2021/06/21 03:11:59;;;;;;;6.13;4.30;;;;;;;20.06;59.23;94782.09;5072503;28;20445;-68
2021/06/21 03:14:28;;;;;;;4.87;4.37;;;;;;;19.99;59.43;94789.00;5068835;28;20504;-68
2021/06/21 03:16:58;;;;;;;5.37;4.47;;;;;;;20.02;59.17;94778.50;5052599;28;21014;-68
2021/06/21 03:19:29;;;;;;;7.20;5.17;;;;;;;20.08;59.08;94795.06;5051753;28;20443;-67
2021/06/21 03:21:56;;;;;;;6.40;5.10;;;;;;;19.80;59.83;94793.88;5052670;28;20457;-67
2021/06/21 03:24:24;;;;;;;9.80;4.97;;;;;;;19.89;59.85;94797.31;5065709;28;20435;-67
2021/06/21 03:26:51;;;;;;;7.50;4.73;;;;;;;19.90;59.43;94798.88;5065832;28;20438;-67
2021/06/21 03:29:20;;;;;;;6.17;5.10;;;;;;;20.09;59.18;94792.09;5066438;28;20473;-67
2021/06/21 03:31:49;;;;;;;6.53;5.23;;;;;;;20.14;59.11;94793.81;5051726;28;20497;-69
2021/06/21 03:34:21;;;;;;;10.23;6.37;;;;;;;20.26;59.15;94795.84;5065520;28;20944;-70
2021/06/21 03:36:48;;;;;;;10.07;6.13;;;;;;;20.19;59.28;94801.66;5053311;28;20494;-68
2021/06/21 03:39:15;;;;;;;6.63;5.90;;;;;;;20.18;58.85;94798.19;5071735;28;20445;-69
2021/06/21 03:41:44;;;;;;;10.77;5.70;;;;;;;20.22;58.50;94798.34;5072511;28;20541;-69
2021/06/21 03:44:11;;;;;;;18.23;5.60;;;;;;;20.10;59.25;94803.53;5064219;28;20435;-69
2021/06/21 03:46:38;;;;;;;8.30;5.17;;;;;;;20.06;59.06;94779.44;5062934;28;20448;-69
2021/06/21 03:49:05;;;;;;;9.50;5.70;;;;;;;20.21;59.28;94791.47;5058583;28;20450;-69
2021/06/21 03:51:32;;;;;;;8.40;5.27;;;;;;;20.03;59.46;94795.25;5060570;28;20818;-68
2021/06/21 03:53:59;;;;;;;9.20;6.43;;;;;;;19.96;59.63;94789.63;5063665;28;20896;-68
2021/06/21 03:56:26;;;;;;;9.93;6.30;;;;;;;19.80;60.65;94783.22;5070798;28;20481;-69
2021/06/21 03:58:53;;;;;;;13.93;7.43;;;;;;;19.81;60.87;94790.13;5059531;28;20438;-68
2021/06/21 04:01:19;;;;;;;11.80;8.27;;;;;;;19.71;61.81;94796.53;5055754;28;21036;-66
2021/06/21 04:03:46;;;;;;;14.63;8.90;;;;;;;19.67;62.40;94794.84;5064622;28;20438;-67
2021/06/21 04:06:13;;;;;;;13.63;8.87;;;;;;;19.14;64.21;94774.63;5059193;28;20883;-67
2021/06/21 04:08:40;;;;;;;13.57;8.43;;;;;;;19.59;63.10;94806.25;5059467;28;20442;-69
2021/06/21 04:11:07;;;;;;;17.53;8.70;;;;;;;19.42;64.20;94814.22;5051101;28;20439;-71
2021/06/21 04:13:34;;;;;;;17.73;7.93;;;;;;;19.57;63.46;94833.16;5061884;28;20442;-69
2021/06/21 04:16:01;;;;;;;15.97;8.50;;;;;;;19.74;63.53;94819.06;5069784;28;20865;-72
2021/06/21 04:18:28;;;;;;;14.80;7.80;;;;;;;19.86;63.11;94817.34;5063064;28;20449;-71
2021/06/21 04:20:56;;;;;;;12.90;8.00;;;;;;;20.09;62.56;94820.56;5058112;28;20434;-69
2021/06/21 04:23:23;;;;;;;13.77;8.73;;;;;;;20.20;62.96;94819.16;5058002;28;20536;-72
2021/06/21 04:25:50;;;;;;;14.67;9.03;;;;;;;20.25;62.36;94819.03;5053410;28;20282;-71
2021/06/21 04:28:17;;;;;;;16.77;8.93;;;;;;;20.48;62.25;94809.69;5059851;28;20439;-69
2021/06/21 04:30:45;;;;;;;16.37;10.27;;;;;;;20.14;63.54;94815.09;5053469;28;20457;-68
2021/06/21 04:33:12;;;;;;;18.17;9.10;;;;;;;20.13;63.39;94805.53;5061199;28;20466;-74
2021/06/21 04:35:39;;;;;;;18.97;8.77;;;;;;;20.61;62.04;94818.56;5051976;28;20832;-75
2021/06/21 04:38:06;;;;;;;12.20;8.37;;;;;;;20.74;61.72;94820.25;5070855;28;20478;-74
2021/06/21 04:40:35;;;;;;;11.57;9.07;;;;;;;21.00;60.93;94824.34;5054060;28;20435;-69
2021/06/21 04:43:03;;;;;;;11.50;9.33;;;;;;;21.09;60.95;94830.41;5049763;28;20443;-70
2021/06/21 04:45:30;;;;;;;14.93;10.60;;;;;;;20.97;61.02;94832.97;5063981;28;20431;-69
2021/06/21 04:48:01;;;;;;;14.73;10.87;;;;;;;21.06;60.60;94831.06;5059913;28;20442;-69
2021/06/21 04:50:28;;;;;;;19.47;13.37;;;;;;;21.01;61.14;94839.25;5068250;28;20191;-70
2021/06/21 04:52:55;;;;;;;18.63;14.73;;;;;;;21.11;60.76;94846.88;5050364;28;20518;-71
2021/06/21 04:55:23;;;;;;;21.20;15.90;;;;;;;21.00;61.32;94848.34;5063561;28;20219;-70
2021/06/21 04:57:51;;;;;;;59.73;48.93;;;;;;;21.09;60.80;94835.75;5063115;28;20527;-77
2021/06/21 05:00:21;;;;;;;52.93;44.00;;;;;;;21.37;60.73;94845.94;5050534;28;20457;-80
2021/06/21 05:02:48;;;;;;;26.57;16.73;;;;;;;21.10;60.94;94842.66;5055822;28;20190;-75
2021/06/21 05:05:17;;;;;;;21.97;13.63;;;;;;;20.95;61.80;94840.50;5070011;28;20674;-73
2021/06/21 05:07:49;;;;;;;18.77;12.77;;;;;;;21.22;61.15;94843.84;5070456;28;20438;-72
2021/06/21 05:10:18;;;;;;;15.40;10.97;;;;;;;21.31;60.47;94852.56;5058397;28;20218;-72
2021/06/21 05:12:46;;;;;;;14.40;10.13;;;;;;;21.26;59.58;94852.75;5062940;28;20669;-75
2021/06/21 05:15:14;;;;;;;18.47;11.30;;;;;;;20.71;61.26;94850.94;5070832;28;20886;-74
2021/06/21 05:17:43;;;;;;;38.67;29.20;;;;;;;21.11;61.32;94844.19;5056448;28;20287;-73
2021/06/21 05:20:12;;;;;;;78.87;58.23;;;;;;;21.39;60.00;94809.06;5057996;28;20952;-75
2021/06/21 05:22:40;;;;;;;54.53;39.97;;;;;;;21.50;60.38;94847.56;5059953;28;20188;-75
2021/06/21 05:25:08;;;;;;;11.63;10.13;;;;;;;21.15;60.42;94842.47;5069617;28;20203;-75
2021/06/21 05:27:35;;;;;;;14.63;10.07;;;;;;;21.01;60.47;94844.59;5064092;28;20196;-70
2021/06/21 05:30:03;;;;;;;14.87;10.57;;;;;;;21.62;59.00;94847.66;5069283;28;20196;-70
2021/06/21 05:32:30;;;;;;;18.50;9.37;;;;;;;21.55;59.88;94847.41;5065287;28;20220;-72
2021/06/21 05:34:57;;;;;;;19.57;10.37;;;;;;;21.87;58.97;94858.16;5049302;28;20531;-71
2021/06/21 05:37:24;;;;;;;12.10;10.07;;;;;;;21.93;58.67;94862.16;5060406;28;20286;-67
2021/06/21 05:39:51;;;;;;;18.03;10.20;;;;;;;22.03;58.21;94863.66;5069256;28;20200;-69
2021/06/21 05:42:18;;;;;;;14.93;9.73;;;;;;;21.99;59.08;94858.19;5065459;28;20196;-71
2021/06/21 05:44:46;;;;;;;13.10;8.87;;;;;;;22.07;59.41;94875.22;5059073;28;20203;-71
2021/06/21 05:47:14;;;;;;;17.07;9.30;;;;;;;21.46;59.98;94870.66;5069806;28;20275;-70
2021/06/21 05:49:43;;;;;;;19.00;9.20;;;;;;;21.70;60.09;94849.44;5069391;28;20282;-70
2021/06/21 05:52:10;;;;;;;14.70;10.20;;;;;;;21.91;60.02;94855.59;5069418;28;20188;-73
2021/06/21 05:54:37;;;;;;;12.17;9.90;;;;;;;22.27;58.89;94842.38;5061328;28;20201;-72
2021/06/21 05:57:05;;;;;;;16.57;10.40;;;;;;;22.11;59.13;94854.81;5050229;28;20205;-69
2021/06/21 05:59:33;;;;;;;18.70;10.30;;;;;;;22.19;58.36;94840.56;5069537;28;20198;-70
2021/06/21 06:02:00;;;;;;;18.50;11.40;;;;;;;22.24;58.13;94837.72;5057029;28;20208;-69
2021/06/21 06:04:27;;;;;;;15.17;9.60;;;;;;;22.34;57.93;94841.84;5068138;28;20662;-68
2021/06/21 06:06:54;;;;;;;16.50;10.40;;;;;;;22.33;57.27;94841.09;5058261;28;20207;-71
2021/06/21 06:09:21;;;;;;;20.47;12.00;;;;;;;22.43;57.08;94840.66;5052055;28;20576;-71
2021/06/21 06:11:48;;;;;;;20.73;10.97;;;;;;;22.08;57.54;94842.09;5070147;28;20569;-70
2021/06/21 06:14:16;;;;;;;14.97;10.10;;;;;;;22.12;57.70;94835.00;5052931;28;20247;-68
2021/06/21 06:16:43;;;;;;;16.00;11.13;;;;;;;22.36;57.83;94842.28;5057523;28;20215;-71
2021/06/21 06:19:10;;;;;;;13.80;9.87;;;;;;;22.45;56.79;94837.63;5062970;28;20208;-72
2021/06/21 06:21:38;;;;;;;15.77;10.20;;;;;;;22.20;58.00;94836.81;5049341;28;20200;-68
2021/06/21 06:24:05;;;;;;;15.97;10.40;;;;;;;22.33;57.34;94835.75;5053252;28;20203;-69
2021/06/21 06:26:32;;;;;;;17.53;9.97;;;;;;;22.74;56.50;94851.63;5058901;28;20248;-68
2021/06/21 06:28:59;;;;;;;14.27;9.00;;;;;;;23.12;55.86;94843.28;5048478;28;20300;-69
2021/06/21 06:31:25;;;;;;;15.10;9.03;;;;;;;23.23;56.14;94831.03;5049393;28;20184;-69
2021/06/21 06:33:52;;;;;;;13.77;9.40;;;;;;;23.09;56.93;94852.78;5064267;28;20210;-70
2021/06/21 06:36:19;;;;;;;15.33;10.33;;;;;;;23.21;56.54;94843.19;5062445;28;20320;-68
2021/06/21 06:38:46;;;;;;;14.53;10.10;;;;;;;23.16;58.23;94851.44;5066278;28;20199;-69
2021/06/21 06:41:13;;;;;;;16.97;10.43;;;;;;;23.39;56.84;94844.53;5069485;28;20257;-70
2021/06/21 06:43:40;;;;;;;19.70;10.13;;;;;;;23.46;55.58;94850.09;5069462;28;20208;-70
2021/06/21 06:46:08;;;;;;;17.63;9.93;;;;;;;23.70;55.86;94831.31;5069067;28;20184;-70
2021/06/21 06:48:36;;;;;;;19.60;9.70;;;;;;;23.57;56.07;94824.44;5068632;28;20271;-72
2021/06/21 06:51:03;;;;;;;19.07;11.07;;;;;;;23.53;56.31;94820.88;5055038;28;20195;-71
2021/06/21 06:59:16;;;;;;;18.60;10.23;;;;;;;23.60;55.59;94823.75;5065376;28;20196;-69
2021/06/21 07:01:47;;;;;;;19.03;10.13;;;;;;;23.69;55.67;94821.72;5069296;28;20282;-69
2021/06/21 07:04:14;;;;;;;17.90;9.93;;;;;;;24.05;53.60;94818.94;5065459;28;20216;-70
2021/06/21 07:06:42;;;;;;;19.60;9.43;;;;;;;23.93;56.07;94835.03;5049495;28;20675;-69
2021/06/21 07:09:09;;;;;;;15.13;9.83;;;;;;;24.33;53.96;94825.06;5064169;28;20291;-68
2021/06/21 07:11:37;;;;;;;19.07;10.17;;;;;;;24.32;55.03;94833.44;5068876;28;20184;-71
2021/06/21 07:14:04;;;;;;;20.50;10.13;;;;;;;23.75;56.99;94825.72;5068341;28;20942;-70
2021/06/21 07:16:32;;;;;;;18.77;9.97;;;;;;;24.22;53.85;94829.34;5068939;28;20227;-68
2021/06/21 07:18:59;;;;;;;20.57;10.80;;;;;;;24.31;53.78;94827.28;5064528;28;20201;-70
2021/06/21 07:21:26;;;;;;;21.27;11.03;;;;;;;24.46;52.68;94834.59;5051871;28;20200;-69
2021/06/21 07:23:54;;;;;;;17.93;10.50;;;;;;;24.57;54.01;94827.59;5068866;28;20211;-70
2021/06/21 07:26:21;;;;;;;23.03;11.40;;;;;;;24.93;53.20;94830.03;5071959;28;20203;-67
2021/06/21 07:28:51;;;;;;;19.90;9.93;;;;;;;24.97;52.89;94833.59;5070559;28;20216;-70
2021/06/21 07:31:17;;;;;;;17.10;10.47;;;;;;;25.27;52.71;94835.81;5052620;28;20549;-69
2021/06/21 07:33:45;;;;;;;18.27;10.50;;;;;;;25.12;54.43;94832.03;5065395;28;20242;-67
2021/06/21 07:36:12;;;;;;;16.57;11.00;;;;;;;25.33;53.24;94834.41;5072076;28;20216;-68
2021/06/21 07:38:40;;;;;;;15.47;9.53;;;;;;;25.22;52.20;94844.13;5072412;28;20255;-70
2021/06/21 07:41:08;;;;;;;18.40;10.10;;;;;;;25.39;52.46;94843.75;5062882;28;20192;-69
2021/06/21 07:43:35;;;;;;;14.20;9.93;;;;;;;25.24;54.01;94836.50;5067785;28;20215;-70
2021/06/21 07:46:03;;;;;;;12.43;9.63;;;;;;;25.45;52.92;94831.66;5071660;28;20204;-66
2021/06/21 07:48:31;;;;;;;11.37;10.07;;;;;;;25.74;52.27;94833.81;5071975;28;20735;-69
2021/06/21 07:50:58;;;;;;;16.93;9.57;;;;;;;25.47;51.98;94834.75;5057475;28;20200;-67
2021/06/21 07:53:24;;;;;;;13.33;9.70;;;;;;;25.40;53.48;94834.59;5071802;28;20214;-68
2021/06/21 07:55:51;;;;;;;18.97;9.13;;;;;;;25.70;51.14;94830.25;5067012;28;20224;-67
2021/06/21 07:58:18;;;;;;;14.77;8.53;;;;;;;25.98;52.50;94828.94;5062186;28;20549;-70
2021/06/21 08:00:46;;;;;;;12.83;8.87;;;;;;;26.11;52.54;94826.94;5071265;28;20215;-70
2021/06/21 08:03:13;;;;;;;13.87;9.33;;;;;;;26.06;51.39;94835.25;5071586;28;20191;-69
2021/06/21 08:05:42;;;;;;;15.93;8.97;;;;;;;25.91;51.46;94828.03;5070922;28;20207;-69
2021/06/21 08:08:09;;;;;;;14.97;8.07;;;;;;;25.97;51.24;94827.38;5071869;28;20187;-70
2021/06/21 08:10:36;;;;;;;13.93;7.90;;;;;;;26.10;51.35;94830.72;5071740;28;20211;-68
2021/06/21 08:13:03;;;;;;;16.00;8.93;;;;;;;25.96;51.19;94825.06;5057176;28;20708;-68
2021/06/21 08:15:31;;;;;;;10.20;7.80;;;;;;;26.04;51.04;94834.81;5071742;28;20218;-68
2021/06/21 08:17:58;;;;;;;12.93;7.80;;;;;;;26.21;50.56;94830.91;5071130;28;20216;-69
2021/06/21 08:20:25;;;;;;;13.77;8.40;;;;;;;26.49;50.45;94810.75;5054709;28;20727;-72
2021/06/21 08:22:52;;;;;;;10.87;7.00;;;;;;;26.60;51.55;94819.78;5051307;28;20682;-71
2021/06/21 08:25:19;;;;;;;10.17;7.70;;;;;;;26.65;48.23;94819.47;5050600;28;20702;-68
2021/06/21 08:27:47;;;;;;;12.67;7.17;;;;;;;26.80;49.69;94810.53;5051398;28;20246;-70
2021/06/21 08:30:14;;;;;;;11.37;7.23;;;;;;;26.95;48.88;94812.31;5063762;28;20277;-70
2021/06/21 08:32:41;;;;;;;12.20;7.67;;;;;;;26.67;49.81;94822.56;5050763;28;20228;-68
2021/06/21 08:35:09;;;;;;;15.40;7.70;;;;;;;26.72;50.75;94819.63;5062408;28;20204;-71
2021/06/21 08:37:36;;;;;;;14.77;7.93;;;;;;;26.98;50.21;94816.19;5061127;28;20227;-70
2021/06/21 08:40:05;;;;;;;17.50;11.93;;;;;;;26.94;50.86;94799.22;5056213;28;20246;-72
2021/06/21 08:42:34;;;;;;;19.20;7.57;;;;;;;27.23;49.20;94811.19;5071070;28;20533;-70
2021/06/21 08:45:01;;;;;;;13.47;7.53;;;;;;;27.51;48.66;94811.63;5069622;28;20199;-69
2021/06/21 08:47:30;;;;;;;13.13;6.00;;;;;;;27.56;49.15;94809.38;5071101;28;20192;-70
2021/06/21 08:49:57;;;;;;;12.23;6.33;;;;;;;27.64;47.91;94804.88;5069451;28;20206;-67
2021/06/21 08:52:25;;;;;;;10.33;5.67;;;;;;;27.80;46.93;94808.16;5066699;28;20197;-68
2021/06/21 08:54:54;;;;;;;10.47;5.40;;;;;;;27.84;47.30;94804.38;5060745;28;20291;-70
2021/06/21 08:57:20;;;;;;;8.00;5.63;;;;;;;27.78;46.46;94810.44;5070546;28;20224;-68
2021/06/21 08:59:47;;;;;;;7.50;4.97;;;;;;;27.92;46.25;94811.41;5070220;28;20195;-70
2021/06/21 09:02:15;;;;;;;9.33;4.63;;;;;;;27.72;46.76;94806.50;5070159;28;20206;-68
2021/06/21 09:04:42;;;;;;;13.03;5.07;;;;;;;27.96;45.93;94806.06;5062937;28;20204;-68
2021/06/21 09:07:28;;;;;;;13.13;5.33;;;;;;;27.91;46.38;94804.47;5064025;28;20192;-68
2021/06/21 09:09:57;;;;;;;8.57;4.70;;;;;;;27.90;45.44;94802.88;5058406;28;20195;-70
2021/06/21 09:12:27;;;;;;;5.00;3.87;;;;;;;27.83;45.08;94808.19;5055866;28;20224;-67
2021/06/21 09:14:56;;;;;;;6.13;4.30;;;;;;;27.85;45.30;94805.91;5070322;28;20589;-69
2021/06/21 09:17:25;;;;;;;10.33;4.40;;;;;;;28.13;43.46;94788.56;5056956;28;20243;-68
2021/06/21 09:20:01;;;;;;;8.57;4.13;;;;;;;28.26;44.23;94795.25;5049856;28;20214;-68
2021/06/21 09:22:41;;;;;;;7.43;4.13;;;;;;;28.21;45.44;94800.97;5064280;28;20200;-69
2021/06/21 09:25:24;;;;;;;7.13;4.00;;;;;;;28.49;44.83;94796.63;5050070;28;20200;-68
2021/06/21 09:28:03;;;;;;;5.87;4.30;;;;;;;28.61;43.02;94804.47;5057631;28;20280;-69
2021/06/21 09:30:32;;;;;;;5.53;4.23;;;;;;;28.73;43.02;94798.81;5054436;28;20208;-69
2021/06/21 09:33:01;;;;;;;4.60;4.00;;;;;;;28.95;42.28;94803.25;5049871;28;20607;-70
2021/06/21 09:35:31;;;;;;;6.77;4.53;;;;;;;29.12;41.74;94803.78;5063529;28;20274;-68
2021/06/21 09:38:03;;;;;;;4.43;3.90;;;;;;;28.83;40.41;94806.22;5060585;28;20230;-68
2021/06/21 09:40:30;;;;;;;4.13;3.73;;;;;;;28.78;39.81;94803.09;5055351;28;20191;-70
2021/06/21 09:42:59;;;;;;;3.57;3.20;;;;;;;29.08;39.99;94798.34;5059563;28;20188;-67
2021/06/21 09:45:26;;;;;;;5.63;3.20;;;;;;;28.95;40.42;94794.38;5063382;28;20248;-67
2021/06/21 09:47:53;;;;;;;6.47;3.77;;;;;;;28.95;41.52;94799.75;5058681;28;20287;-67
2021/06/21 09:50:26;;;;;;;5.67;3.60;;;;;;;29.27;39.83;94786.53;5068480;28;20206;-70
2021/06/21 09:53:00;;;;;;;5.43;3.30;;;;;;;29.25;38.88;94788.84;5057442;28;20761;-69
2021/06/21 09:55:27;;;;;;;5.70;3.50;;;;;;;29.24;39.11;94795.38;5054099;28;20199;-68
2021/06/21 09:58:02;;;;;;;6.37;3.00;;;;;;;29.54;38.40;94787.84;5049938;28;20212;-69
2021/06/21 10:00:29;;;;;;;4.30;3.40;;;;;;;29.86;39.68;94786.09;5049558;28;20686;-70
2021/06/21 10:03:09;;;;;;;5.33;3.30;;;;;;;30.07;38.21;94786.19;5062587;28;20191;-69
2021/06/21 10:05:40;;;;;;;6.10;3.23;;;;;;;29.83;37.40;94789.56;5063408;28;20619;-69
2021/06/21 10:08:08;;;;;;;6.53;3.40;;;;;;;29.63;38.48;94782.88;5069521;28;20188;-67
2021/06/21 10:10:35;;;;;;;4.40;3.10;;;;;;;29.84;38.06;94788.41;5055314;28;20196;-67
2021/06/21 10:13:04;;;;;;;5.97;3.23;;;;;;;29.84;36.59;94772.19;5063527;28;20191;-67
2021/06/21 10:15:34;;;;;;;3.57;2.90;;;;;;;29.89;35.45;94779.94;5061348;28;20216;-69
2021/06/21 10:18:04;;;;;;;3.60;2.93;;;;;;;29.72;35.40;94776.03;5064062;28;20678;-69
2021/06/21 10:20:31;;;;;;;5.10;3.03;;;;;;;30.03;36.92;94771.09;5051512;28;20188;-66
2021/06/21 10:23:04;;;;;;;3.67;3.37;;;;;;;30.03;39.42;94774.59;5069483;28;20183;-69
2021/06/21 10:25:49;;;;;;;3.77;2.70;;;;;;;30.52;36.87;94769.31;5069147;28;20280;-68
2021/06/21 10:28:16;;;;;;;7.07;2.80;;;;;;;30.57;35.90;94777.06;5068977;28;20208;-68
2021/06/21 10:30:44;;;;;;;4.30;2.77;;;;;;;30.59;34.30;94769.34;5054641;28;20582;-67
2021/06/21 10:33:11;;;;;;;4.27;2.70;;;;;;;30.80;36.38;94779.41;5069091;28;20230;-68
2021/06/21 10:35:38;;;;;;;4.53;2.70;;;;;;;30.95;34.45;94775.53;5067955;28;20200;-69
2021/06/21 10:38:06;;;;;;;5.77;2.70;;;;;;;30.42;33.95;94786.28;5061374;28;20218;-67
2021/06/21 10:40:56;;;;;;;10.77;3.03;;;;;;;31.06;33.80;94770.16;5068683;28;20188;-73
2021/06/21 10:43:45;;;;;;;5.30;2.93;;;;;;;31.21;34.94;94774.34;5069504;28;20281;-68
2021/06/21 10:46:27;;;;;;;5.10;2.73;;;;;;;31.35;35.06;94777.06;5058077;28;20578;-67
2021/06/21 10:48:57;;;;;;;4.27;2.90;;;;;;;31.27;34.30;94775.53;5054471;28;20200;-69
2021/06/21 10:51:31;;;;;;;3.23;2.90;;;;;;;31.13;33.62;94768.19;5069473;28;20295;-69
2021/06/21 10:53:58;;;;;;;5.50;2.77;;;;;;;31.33;34.64;94766.59;5065588;28;20211;-67
2021/06/21 10:56:49;;;;;;;4.20;2.73;;;;;;;31.51;33.87;94758.47;5052535;28;20266;-68
2021/06/21 10:59:21;;;;;;;7.43;2.87;;;;;;;31.39;32.94;94772.41;5052687;28;20578;-70
2021/06/21 11:01:51;;;;;;;2.60;2.30;;;;;;;31.37;33.29;94753.88;5064250;28;20222;-69
2021/06/21 11:04:34;;;;;;;3.40;2.30;;;;;;;31.37;33.77;94763.94;5054388;28;20196;-68
2021/06/21 11:07:27;;;;;;;6.13;2.47;;;;;;;31.34;33.66;94753.84;5053164;28;20219;-69
2021/06/21 11:09:58;;;;;;;3.07;2.50;;;;;;;31.49;35.01;94739.91;5059827;28;20235;-67
2021/06/21 11:12:31;;;;;;;2.67;2.47;;;;;;;31.45;34.18;94749.19;5058074;28;20193;-70
2021/06/21 11:15:07;;;;;;;3.50;2.30;;;;;;;31.58;33.58;94742.19;5052678;28;20266;-70
2021/06/21 11:17:54;;;;;;;3.67;2.67;;;;;;;31.64;31.79;94740.66;5052711;28;20298;-67
2021/06/21 11:20:40;;;;;;;3.00;2.70;;;;;;;31.90;33.11;94732.03;5067369;28;20666;-68
2021/06/21 11:23:10;;;;;;;5.77;2.30;;;;;;;31.88;33.91;94722.75;5062333;28;20654;-68
2021/06/21 11:25:48;;;;;;;4.13;2.20;;;;;;;31.90;32.65;94723.91;5066359;28;20200;-68
2021/06/21 11:28:35;;;;;;;2.73;2.43;;;;;;;31.79;33.32;94737.47;5052325;28;20228;-69
2021/06/21 11:31:26;;;;;;;2.53;2.33;;;;;;;32.26;32.81;94738.78;5051813;28;20196;-67
2021/06/21 11:34:03;;;;;;;4.97;2.30;;;;;;;32.45;32.09;94730.19;5066860;28;20311;-68
2021/06/21 11:36:37;;;;;;;4.30;2.10;;;;;;;32.39;32.09;94734.47;5063802;28;20740;-67
2021/06/21 11:39:28;;;;;;;6.07;2.43;;;;;;;32.03;32.93;94730.41;5051749;28;20207;-67
2021/06/21 11:42:06;;;;;;;4.87;2.37;;;;;;;32.18;32.41;94729.19;5052254;28;20211;-68
2021/06/21 11:44:39;;;;;;;2.10;1.90;;;;;;;32.22;32.62;94723.72;5061119;28;20192;-68